Terminal Aerodrome Forecast
Issued by NWS Bismarck, ND

Home | Current Version | Previous Version | Graphics & Text | Print | Product List | Glossary On
Versions: 1 2 3 4 5 6 7 8 9 10 11 12 13
000
FTUS43 KBIS 162333
TAFBIS
TAF
KBIS 162333Z 1700/1724 25004KT P6SM SKC
     FM171000 00000KT P6SM SCT250 WS020/31040KT
     FM171900 27010KT P6SM SCT250=

USA.gov is the U.S. government's official web portal to all federal, state and local government web resources and services.